Hlavní strana
METAR-TAF:

METAR-TAF

Letiště :

Ponta Delgada, Azory, Portugalsko

zeměpisná šířka: 37-44N, zeměpisná délka: 025-42W, výška: 71 m

Aktuální stav počasí

Zpráva byla vytvořena před 29 minutami, v 21:30 UTC
Jihojihozápadní vítr 9 kt
Teplota 18°C
Vlhkost vzduchu 88%
Tlak 1027 hPa
Viditelnost 10 km a více
Skoro jasno ve výšce 800 ft

METAR: LPPD 222130Z 21009KT 9999 FEW008 18/16 Q1027

Čas: 20:59 (21:59 UTC)

Předpověď počasí

Zpráva byla vytvořena před 4 hodinami a 59 minutami, v 17:00 UTC
Předpověď platná od 22 v 18 UTC do 23 v 18 UTC
Jihojihozápadní vítr 12 kt
Viditelnost 10 km a více
Polojasno ve výšce 1500 ft
Oblačno až skoro zataženo ve výšce 4500 ft
Pravděpodobnost 40% :
Dočasný
od 22 v 18 UTC do 23 v 18 UTC
Viditelnost: 6000 m
Polojasno ve výšce 600 ft
Oblačno až skoro zataženo ve výšce 1200 ft
slabý déšť, mrholení

TAF: LPPD 221700Z 2218/2318 21012KT 9999 SCT015 BKN045 PROB40 TEMPO 2218/2318 6000 -RADZ SCT006 BKN012

Stav a předpovědi počasí z více než 4 000 letišť (zprávy METAR a TAF).

Červené a žluté tečky na mapě představují dostupné meteorologické stanice.

Když kurzor umístíte na tečku, zobrazí se název stanice.

Pak kliknutím zobrazíte stav a předpověď počasí.

Chcete-li změnit mapu, kliknutím na zelené tlačítko se znaménkem +mapu přiblížíte, kliknutím na zelené tlačítko se znaménkem – mapu oddálíte a kliknutím na zelené šipky přejdete na sousední mapy.


METAR-TAF: